createdAt,value
2017-05-17T00:00:00.062Z,56.90
2017-05-17T00:02:27.801Z,56.70
2017-05-17T00:04:54.786Z,56.50
2017-05-17T00:07:21.768Z,57.40
2017-05-17T00:09:48.737Z,56.80
2017-05-17T00:12:15.825Z,56.80
2017-05-17T00:14:43.533Z,56.70
2017-05-17T00:17:10.502Z,56.80
2017-05-17T00:19:37.498Z,56.70
2017-05-17T00:22:04.475Z,56.80
2017-05-17T00:24:31.461Z,56.60
2017-05-17T00:26:58.432Z,56.50
2017-05-17T00:29:26.168Z,56.70
2017-05-17T00:31:53.134Z,56.60
2017-05-17T00:34:20.148Z,56.80
2017-05-17T00:36:59.283Z,56.90
2017-05-17T00:39:38.486Z,56.80
2017-05-17T00:42:17.713Z,56.90
2017-05-17T00:44:56.875Z,57.10
2017-05-17T00:47:36.141Z,57.00
2017-05-17T00:50:15.613Z,56.90
2017-05-17T00:52:42.581Z,57.10
2017-05-17T00:55:09.568Z,57.00
2017-05-17T00:57:36.544Z,57.10
2017-05-17T01:00:03.523Z,57.00
2017-05-17T01:02:30.512Z,57.10
2017-05-17T01:04:57.502Z,57.10
2017-05-17T01:07:24.494Z,57.20
2017-05-17T01:09:51.462Z,57.30
2017-05-17T01:12:19.181Z,57.30
2017-05-17T01:14:46.151Z,57.70
2017-05-17T01:17:13.414Z,57.70
2017-05-17T01:19:41.144Z,57.60
2017-05-17T01:22:09.469Z,57.60
2017-05-17T01:24:36.436Z,58.20
2017-05-17T01:27:03.396Z,57.60
2017-05-17T01:29:30.374Z,57.60
2017-05-17T01:31:57.376Z,57.70
2017-05-17T01:34:24.363Z,57.70
2017-05-17T01:36:51.339Z,57.80
2017-05-17T01:39:19.095Z,57.60
2017-05-17T01:41:46.802Z,57.50
2017-05-17T01:44:13.824Z,57.60
2017-05-17T01:46:41.071Z,57.50
2017-05-17T01:49:08.110Z,57.50
2017-05-17T01:51:35.069Z,57.50
2017-05-17T01:54:02.072Z,57.50
2017-05-17T01:56:29.777Z,57.60
2017-05-17T01:58:56.741Z,57.70
2017-05-17T02:01:23.718Z,57.70
2017-05-17T02:03:51.718Z,58.20
2017-05-17T02:06:18.828Z,57.60
2017-05-17T02:08:45.794Z,57.50
2017-05-17T02:11:13.527Z,57.90
2017-05-17T02:13:40.501Z,57.50
2017-05-17T02:16:08.224Z,57.70
2017-05-17T02:18:35.237Z,57.80
2017-05-17T02:21:02.414Z,57.90
2017-05-17T02:23:30.140Z,58.10
2017-05-17T02:25:57.105Z,58.20
2017-05-17T02:28:24.106Z,58.20
2017-05-17T02:30:51.074Z,57.90
2017-05-17T02:33:18.074Z,58.40
2017-05-17T02:35:45.046Z,57.80
2017-05-17T02:38:12.887Z,58.20
2017-05-17T02:40:39.870Z,58.20
2017-05-17T02:43:07.627Z,58.00
2017-05-17T02:45:35.345Z,57.90
2017-05-17T02:48:02.321Z,57.90
2017-05-17T02:50:29.310Z,57.80
2017-05-17T02:52:56.287Z,58.00
2017-05-17T02:55:23.281Z,58.40
2017-05-17T02:57:50.244Z,59.20
2017-05-17T03:00:17.249Z,58.80
2017-05-17T03:02:44.216Z,59.00
2017-05-17T03:05:11.950Z,59.00
2017-05-17T03:07:39.187Z,59.00
2017-05-17T03:10:06.162Z,59.00
2017-05-17T03:12:33.146Z,59.10
2017-05-17T03:15:00.116Z,59.00
2017-05-17T03:17:27.101Z,59.00
2017-05-17T03:19:54.202Z,59.10
2017-05-17T03:22:21.195Z,59.00
2017-05-17T03:24:48.165Z,59.10
2017-05-17T03:27:15.152Z,59.20
2017-05-17T03:29:42.862Z,59.00
2017-05-17T03:32:09.860Z,59.30
2017-05-17T03:34:36.810Z,59.50
2017-05-17T03:37:04.558Z,59.50
2017-05-17T03:39:31.516Z,59.60
2017-05-17T03:41:59.213Z,59.80
2017-05-17T03:44:26.206Z,59.80
2017-05-17T03:46:53.283Z,59.90
2017-05-17T03:49:21.019Z,60.80
2017-05-17T03:51:48.114Z,60.00
2017-05-17T03:54:15.836Z,60.30
2017-05-17T03:56:42.806Z,60.30
2017-05-17T03:59:10.546Z,60.10
2017-05-17T04:01:37.511Z,60.00
2017-05-17T04:04:04.504Z,60.20
2017-05-17T04:06:31.495Z,60.10
2017-05-17T04:08:58.467Z,60.00
2017-05-17T04:11:25.458Z,60.00
2017-05-17T04:13:52.515Z,60.20
2017-05-17T04:16:19.502Z,60.70
2017-05-17T04:18:46.509Z,60.70
2017-05-17T04:21:13.497Z,60.80
2017-05-17T04:23:40.479Z,60.90
2017-05-17T04:26:07.458Z,61.20
2017-05-17T04:28:35.168Z,61.20
2017-05-17T04:31:02.912Z,60.90
2017-05-17T04:33:29.888Z,60.40
2017-05-17T04:35:57.597Z,60.50
2017-05-17T04:38:24.593Z,60.90
2017-05-17T04:40:52.470Z,61.00
2017-05-17T04:43:20.199Z,60.70
2017-05-17T04:45:47.173Z,60.90
2017-05-17T04:48:14.906Z,61.80
2017-05-17T04:50:41.883Z,61.70
2017-05-17T04:53:09.623Z,61.20
2017-05-17T04:55:36.591Z,61.30
2017-05-17T04:58:03.585Z,61.30
2017-05-17T05:00:31.293Z,61.20
2017-05-17T05:02:58.295Z,61.20
2017-05-17T05:05:26.035Z,61.10
2017-05-17T05:07:53.028Z,61.40
2017-05-17T05:10:20.419Z,61.30
2017-05-17T05:12:47.419Z,61.20
2017-05-17T05:15:15.119Z,61.30
2017-05-17T05:17:42.338Z,61.80
2017-05-17T05:20:09.326Z,61.60
2017-05-17T05:22:36.290Z,61.50
2017-05-17T05:25:03.275Z,61.80
2017-05-17T05:27:30.242Z,61.70
2017-05-17T05:29:57.219Z,61.60
2017-05-17T05:32:24.204Z,61.70
2017-05-17T05:34:51.956Z,61.40
2017-05-17T05:37:19.671Z,61.20
2017-05-17T05:39:46.668Z,61.10
2017-05-17T05:42:14.425Z,61.20
2017-05-17T05:44:41.728Z,61.20
2017-05-17T05:47:08.717Z,61.20
2017-05-17T05:49:35.679Z,61.30
2017-05-17T05:52:03.416Z,61.40
2017-05-17T05:54:30.441Z,61.10
2017-05-17T05:56:57.456Z,60.90
2017-05-17T05:59:24.416Z,61.20
2017-05-17T06:01:51.421Z,61.30
2017-05-17T06:04:18.405Z,61.20
2017-05-17T06:06:45.365Z,61.00
2017-05-17T06:09:12.349Z,60.90
2017-05-17T06:11:39.310Z,61.00
2017-05-17T06:14:06.311Z,60.90
2017-05-17T06:16:33.282Z,60.90
2017-05-17T06:19:00.284Z,61.00
2017-05-17T06:21:27.983Z,61.20
2017-05-17T06:23:54.973Z,60.80
2017-05-17T06:26:21.938Z,61.40
2017-05-17T06:28:49.678Z,61.20
2017-05-17T06:31:16.642Z,60.90
2017-05-17T06:33:44.362Z,60.50
2017-05-17T06:36:11.326Z,60.10
2017-05-17T06:38:38.322Z,59.70
2017-05-17T06:41:05.940Z,59.90
2017-05-17T06:43:32.938Z,60.50
2017-05-17T06:45:59.905Z,60.20
2017-05-17T06:48:27.054Z,60.10
2017-05-17T06:50:54.020Z,59.80
2017-05-17T06:53:20.987Z,58.90
2017-05-17T06:55:48.722Z,58.60
2017-05-17T06:58:15.683Z,58.70
2017-05-17T07:00:42.677Z,57.70
2017-05-17T07:03:09.639Z,56.80
2017-05-17T07:05:36.652Z,56.20
2017-05-17T07:08:03.622Z,55.00
2017-05-17T07:10:30.613Z,54.20
2017-05-17T07:12:57.574Z,54.30
2017-05-17T07:15:25.313Z,53.70
2017-05-17T07:17:52.358Z,52.90
2017-05-17T07:20:19.333Z,52.10
2017-05-17T07:22:47.058Z,51.60
2017-05-17T07:25:14.025Z,50.50
2017-05-17T07:27:41.006Z,50.80
2017-05-17T07:30:07.975Z,49.90
2017-05-17T07:32:34.966Z,50.00
2017-05-17T07:35:02.670Z,49.70
2017-05-17T07:37:29.653Z,49.40
2017-05-17T07:39:56.770Z,47.80
2017-05-17T07:42:23.748Z,48.10
2017-05-17T07:44:50.710Z,47.70
2017-05-17T07:47:18.433Z,46.20
2017-05-17T07:49:45.393Z,47.50
2017-05-17T07:52:12.405Z,47.50
2017-05-17T07:54:39.369Z,47.30
2017-05-17T07:57:06.339Z,47.30
2017-05-17T07:59:33.326Z,47.30
2017-05-17T08:02:00.285Z,46.40
2017-05-17T08:04:27.293Z,46.90
2017-05-17T08:06:54.994Z,46.20
2017-05-17T08:09:21.974Z,45.10
2017-05-17T08:11:48.940Z,44.40
2017-05-17T08:14:16.666Z,45.10
2017-05-17T08:16:43.622Z,44.80
2017-05-17T08:19:10.619Z,44.40
2017-05-17T08:21:37.580Z,44.00
2017-05-17T08:24:04.556Z,44.50
2017-05-17T08:26:31.544Z,44.50
2017-05-17T08:28:59.258Z,44.80
2017-05-17T08:31:26.246Z,44.20
2017-05-17T08:33:53.966Z,43.00
2017-05-17T08:36:20.957Z,44.30
2017-05-17T08:38:48.656Z,43.80
2017-05-17T08:41:15.646Z,43.60
2017-05-17T08:43:42.617Z,42.70
2017-05-17T08:46:09.616Z,44.10
2017-05-17T08:48:36.586Z,42.60
2017-05-17T08:51:03.569Z,42.70
2017-05-17T08:53:30.571Z,42.60
2017-05-17T08:55:57.535Z,42.60
2017-05-17T08:58:25.258Z,41.90
2017-05-17T09:00:52.238Z,41.70
2017-05-17T09:03:19.225Z,41.60
2017-05-17T09:05:46.209Z,41.40
2017-05-17T09:08:13.199Z,40.90
2017-05-17T09:10:40.174Z,42.10
2017-05-17T09:13:07.158Z,41.80
2017-05-17T09:15:34.123Z,42.10
2017-05-17T09:18:01.154Z,41.70
2017-05-17T09:20:28.122Z,41.50
2017-05-17T09:22:55.850Z,41.50
2017-05-17T09:25:22.853Z,42.70
2017-05-17T09:27:49.826Z,41.80
2017-05-17T09:30:16.822Z,42.90
2017-05-17T09:32:44.525Z,40.70
2017-05-17T09:35:11.559Z,40.30
2017-05-17T09:37:38.525Z,40.40
2017-05-17T09:40:05.492Z,40.80
2017-05-17T09:42:33.231Z,40.40
2017-05-17T09:45:00.200Z,40.90
2017-05-17T09:50:01.729Z,39.40
2017-05-17T09:52:28.713Z,39.80
2017-05-17T09:54:56.421Z,38.40
2017-05-17T09:57:23.395Z,39.50
2017-05-17T09:59:50.351Z,39.40
2017-05-17T10:02:17.350Z,39.70
2017-05-17T10:04:44.344Z,39.50
2017-05-17T10:07:11.319Z,39.10
2017-05-17T10:09:39.046Z,37.60
2017-05-17T10:12:06.009Z,38.10
2017-05-17T10:14:32.990Z,39.30
2017-05-17T10:16:59.949Z,38.70
2017-05-17T10:19:26.923Z,39.70
2017-05-17T10:21:53.893Z,38.90
2017-05-17T10:24:20.881Z,39.40
2017-05-17T10:26:47.866Z,40.10
2017-05-17T10:29:14.840Z,40.20
2017-05-17T10:31:41.806Z,39.70
2017-05-17T10:34:08.819Z,40.40
2017-05-17T10:36:35.772Z,39.50
2017-05-17T10:39:02.815Z,39.20
2017-05-17T10:41:29.800Z,38.80
2017-05-17T10:43:56.771Z,38.10
2017-05-17T10:46:24.501Z,38.30
2017-05-17T10:48:51.466Z,38.00
2017-05-17T10:51:18.445Z,37.40
2017-05-17T10:53:45.414Z,37.40
2017-05-17T10:56:12.407Z,39.10
2017-05-17T10:58:39.373Z,39.00
2017-05-17T11:01:07.123Z,37.60
2017-05-17T11:03:34.091Z,37.60
2017-05-17T11:06:01.814Z,38.80
2017-05-17T11:08:28.806Z,38.10
2017-05-17T11:10:55.765Z,38.60
2017-05-17T11:13:22.750Z,38.10
2017-05-17T11:15:49.717Z,37.90
2017-05-17T11:18:17.453Z,40.80
2017-05-17T11:20:44.417Z,37.90
2017-05-17T11:23:11.405Z,37.10
2017-05-17T11:25:38.368Z,36.50
2017-05-17T11:28:05.362Z,37.40
2017-05-17T11:30:32.324Z,38.30
2017-05-17T11:32:59.320Z,38.60
2017-05-17T11:35:26.304Z,37.50
2017-05-17T11:37:53.306Z,38.20
2017-05-17T11:40:21.018Z,38.20
2017-05-17T11:42:48.012Z,36.10
2017-05-17T11:45:15.716Z,36.00
2017-05-17T11:47:42.716Z,35.90
2017-05-17T11:50:10.421Z,36.30
2017-05-17T11:52:37.383Z,35.20
2017-05-17T11:55:04.378Z,36.40
2017-05-17T11:57:31.351Z,36.20
2017-05-17T11:59:58.360Z,35.70
2017-05-17T12:02:26.071Z,36.60
2017-05-17T12:04:53.082Z,36.00
2017-05-17T12:07:20.056Z,36.20
2017-05-17T12:09:47.043Z,34.70
2017-05-17T12:12:14.014Z,35.20
2017-05-17T12:14:41.801Z,35.10
2017-05-17T12:17:08.769Z,35.00
2017-05-17T12:19:35.738Z,35.40
2017-05-17T12:22:02.739Z,37.90
2017-05-17T12:24:29.702Z,35.50
2017-05-17T12:26:56.689Z,34.80
2017-05-17T12:29:23.653Z,35.00
2017-05-17T12:31:50.642Z,35.40
2017-05-17T12:34:17.607Z,33.20
2017-05-17T12:36:45.351Z,33.30
2017-05-17T12:39:12.310Z,33.80
2017-05-17T12:41:39.277Z,34.30
2017-05-17T12:44:06.993Z,34.70
2017-05-17T12:46:33.953Z,33.60
2017-05-17T12:49:00.937Z,34.10
2017-05-17T12:51:27.924Z,33.80
2017-05-17T12:53:54.909Z,33.90
2017-05-17T12:56:22.622Z,33.90
2017-05-17T12:58:49.658Z,34.50
2017-05-17T13:01:16.630Z,35.00
2017-05-17T13:03:43.621Z,34.10
2017-05-17T13:06:11.345Z,34.50
2017-05-17T13:08:38.331Z,33.60
2017-05-17T13:11:06.046Z,33.80
2017-05-17T13:13:33.039Z,35.20
2017-05-17T13:16:00.741Z,35.10
2017-05-17T13:18:27.746Z,33.10
2017-05-17T13:20:55.450Z,34.30
2017-05-17T13:23:22.409Z,35.80
2017-05-17T13:25:49.397Z,34.60
2017-05-17T13:28:17.099Z,34.70
2017-05-17T13:30:44.094Z,35.00
2017-05-17T13:33:11.061Z,35.20
2017-05-17T13:35:38.062Z,35.10
2017-05-17T13:38:05.026Z,34.90
2017-05-17T13:40:32.013Z,34.50
2017-05-17T13:42:58.971Z,34.10
2017-05-17T13:45:25.971Z,35.00
2017-05-17T13:47:52.934Z,35.70
2017-05-17T13:50:20.634Z,35.20
2017-05-17T13:52:47.667Z,36.70
2017-05-17T13:55:14.643Z,35.90
2017-05-17T13:57:41.624Z,36.60
2017-05-17T14:00:09.346Z,36.60
2017-05-17T14:02:36.334Z,37.40
2017-05-17T14:05:04.062Z,36.20
2017-05-17T14:07:31.045Z,36.70
2017-05-17T14:09:58.750Z,37.40
2017-05-17T14:12:25.731Z,36.60
2017-05-17T14:14:52.686Z,37.70
2017-05-17T14:17:19.678Z,36.70
2017-05-17T14:19:46.639Z,38.00
2017-05-17T14:22:13.636Z,36.90
2017-05-17T14:24:41.337Z,37.40
2017-05-17T14:27:08.350Z,36.40
2017-05-17T14:29:36.063Z,36.30
2017-05-17T14:32:03.027Z,36.10
2017-05-17T14:34:30.011Z,36.80
2017-05-17T14:36:57.713Z,37.20
2017-05-17T14:39:24.700Z,36.60
2017-05-17T14:41:51.680Z,36.80
2017-05-17T14:44:18.723Z,37.00
2017-05-17T14:46:45.686Z,36.40
2017-05-17T14:49:12.680Z,36.20
2017-05-17T14:51:39.647Z,36.20
2017-05-17T14:54:07.377Z,36.40
2017-05-17T14:56:34.335Z,36.10
2017-05-17T14:59:01.324Z,36.50
2017-05-17T15:01:28.287Z,37.50
2017-05-17T15:03:55.290Z,36.80
2017-05-17T15:06:23.020Z,37.30
2017-05-17T15:08:49.983Z,36.60
2017-05-17T15:11:16.973Z,37.40
2017-05-17T15:13:43.939Z,37.10
2017-05-17T15:16:10.923Z,36.30
2017-05-17T15:18:37.885Z,36.30
2017-05-17T15:21:05.614Z,36.30
2017-05-17T15:23:32.587Z,36.00
2017-05-17T15:26:00.319Z,36.80
2017-05-17T15:28:27.286Z,35.90
2017-05-17T15:30:54.282Z,35.90
2017-05-17T15:33:21.254Z,36.00
2017-05-17T15:35:48.250Z,36.40
2017-05-17T15:38:15.343Z,37.20
2017-05-17T15:40:42.313Z,36.20
2017-05-17T15:43:09.297Z,36.50
2017-05-17T15:45:36.259Z,36.50
2017-05-17T15:48:03.247Z,37.20
2017-05-17T15:50:30.216Z,37.20
2017-05-17T15:52:57.941Z,37.10
2017-05-17T15:55:24.905Z,37.80
2017-05-17T15:57:51.969Z,37.80
2017-05-17T16:00:18.913Z,37.60
2017-05-17T16:02:46.619Z,37.70
2017-05-17T16:05:13.631Z,37.90
2017-05-17T16:07:41.343Z,37.70
2017-05-17T16:10:08.326Z,37.80
2017-05-17T16:12:35.286Z,38.10
2017-05-17T16:15:03.004Z,38.30
2017-05-17T16:17:29.971Z,39.20
2017-05-17T16:19:56.958Z,38.20
2017-05-17T16:22:23.922Z,37.70
2017-05-17T16:24:50.918Z,37.60
2017-05-17T16:27:17.884Z,37.50
2017-05-17T16:29:45.595Z,37.70
2017-05-17T16:32:12.582Z,37.20
2017-05-17T16:34:39.566Z,37.20
2017-05-17T16:37:06.564Z,37.70
2017-05-17T16:39:33.529Z,37.20
2017-05-17T16:42:00.513Z,37.30
2017-05-17T16:44:27.476Z,37.30
2017-05-17T16:46:54.463Z,37.60
2017-05-17T16:49:21.426Z,37.80
2017-05-17T16:51:48.421Z,37.50
2017-05-17T16:54:15.678Z,37.80
2017-05-17T16:56:42.967Z,38.10
2017-05-17T16:59:09.954Z,37.90
2017-05-17T17:01:37.651Z,37.70
2017-05-17T17:04:04.671Z,37.70
2017-05-17T17:06:32.402Z,38.00
2017-05-17T17:08:59.395Z,38.20
2017-05-17T17:11:26.370Z,38.10
2017-05-17T17:13:53.356Z,38.40
2017-05-17T17:16:20.312Z,39.10
2017-05-17T17:18:48.041Z,39.00
2017-05-17T17:21:15.014Z,38.90
2017-05-17T17:23:42.756Z,38.80
2017-05-17T17:26:09.728Z,38.80
2017-05-17T17:28:37.430Z,39.00
2017-05-17T17:31:04.703Z,39.20
2017-05-17T17:33:31.680Z,39.40
2017-05-17T17:35:58.674Z,39.70
2017-05-17T17:38:25.643Z,39.40
2017-05-17T17:40:52.635Z,39.50
2017-05-17T17:43:20.342Z,39.60
2017-05-17T17:45:47.380Z,39.90
2017-05-17T17:48:14.357Z,40.20
2017-05-17T17:50:41.353Z,40.20
2017-05-17T17:53:08.317Z,40.70
2017-05-17T17:55:35.323Z,40.60
2017-05-17T17:58:03.158Z,40.80
2017-05-17T18:00:30.153Z,40.90
2017-05-17T18:02:57.882Z,41.00
2017-05-17T18:05:24.869Z,41.20
2017-05-17T18:07:51.875Z,41.60
2017-05-17T18:10:18.913Z,41.50
2017-05-17T18:12:45.919Z,41.60
2017-05-17T18:15:12.886Z,41.70
2017-05-17T18:17:39.904Z,41.70
2017-05-17T18:20:06.876Z,41.80
2017-05-17T18:22:33.901Z,41.80
2017-05-17T18:25:01.055Z,41.90
2017-05-17T18:27:28.049Z,42.00
2017-05-17T18:29:55.411Z,42.20
2017-05-17T18:32:22.400Z,42.60
2017-05-17T18:34:49.411Z,42.50
2017-05-17T18:37:16.387Z,42.70
2017-05-17T18:39:43.378Z,43.30
2017-05-17T18:42:10.349Z,43.40
2017-05-17T18:44:38.095Z,43.80
2017-05-17T18:47:05.641Z,43.80
2017-05-17T18:49:33.013Z,44.30
2017-05-17T18:52:00.098Z,45.00
2017-05-17T18:54:28.306Z,45.30
2017-05-17T18:56:55.267Z,45.40
2017-05-17T18:59:22.245Z,45.00
2017-05-17T19:01:49.987Z,45.10
2017-05-17T19:04:16.975Z,45.10
2017-05-17T19:06:43.970Z,45.30
2017-05-17T19:09:10.943Z,45.20
2017-05-17T19:11:37.942Z,45.90
2017-05-17T19:14:04.911Z,45.90
2017-05-17T19:16:31.903Z,45.20
2017-05-17T19:18:58.872Z,44.70
2017-05-17T19:21:25.865Z,44.90
2017-05-17T19:23:52.829Z,45.10
2017-05-17T19:26:20.534Z,45.10
2017-05-17T19:28:47.521Z,45.00
2017-05-17T19:31:14.487Z,45.00
2017-05-17T19:33:42.218Z,45.40
2017-05-17T19:36:09.188Z,45.50
2017-05-17T19:38:36.926Z,45.10
2017-05-17T19:41:03.887Z,45.20
2017-05-17T19:43:30.873Z,45.30
2017-05-17T19:45:57.850Z,45.20
2017-05-17T19:48:24.852Z,45.20
2017-05-17T19:50:51.835Z,45.80
2017-05-17T19:53:18.810Z,45.30
2017-05-17T19:55:45.802Z,45.50
2017-05-17T19:58:12.776Z,45.40
2017-05-17T20:00:39.764Z,45.30
2017-05-17T20:03:07.462Z,45.40
2017-05-17T20:05:34.475Z,45.40
2017-05-17T20:08:02.189Z,45.60
2017-05-17T20:10:29.183Z,45.50
2017-05-17T20:12:56.893Z,45.50
2017-05-17T20:15:23.893Z,45.40
2017-05-17T20:17:50.862Z,45.80
2017-05-17T20:20:17.830Z,45.90
2017-05-17T20:22:44.817Z,46.00
2017-05-17T20:25:11.785Z,46.50
2017-05-17T20:27:38.779Z,46.70
2017-05-17T20:30:06.486Z,47.30
2017-05-17T20:32:33.481Z,47.40
2017-05-17T20:35:01.184Z,47.90
2017-05-17T20:37:28.279Z,48.30
2017-05-17T20:39:55.243Z,48.90
2017-05-17T20:42:23.021Z,49.10
2017-05-17T20:44:49.991Z,49.20
2017-05-17T20:47:16.977Z,49.00
2017-05-17T20:49:43.946Z,49.30
2017-05-17T20:52:11.688Z,49.60
2017-05-17T20:54:38.664Z,49.70
2017-05-17T20:57:06.367Z,50.20
2017-05-17T20:59:33.363Z,49.90
2017-05-17T21:02:01.085Z,49.70
2017-05-17T21:04:28.098Z,49.90
2017-05-17T21:06:55.058Z,50.20
2017-05-17T21:09:22.058Z,50.30
2017-05-17T21:11:49.823Z,50.40
2017-05-17T21:14:17.546Z,50.20
2017-05-17T21:16:44.513Z,50.40
2017-05-17T21:19:11.862Z,50.70
2017-05-17T21:21:38.830Z,51.00
2017-05-17T21:24:06.690Z,51.10
2017-05-17T21:26:33.650Z,51.40
2017-05-17T21:29:01.392Z,51.40
2017-05-17T21:31:28.378Z,51.60
2017-05-17T21:33:55.335Z,51.80
2017-05-17T21:36:22.374Z,52.50
2017-05-17T21:38:49.344Z,53.00
2017-05-17T21:41:16.331Z,52.80
2017-05-17T21:43:44.041Z,53.30
2017-05-17T21:46:11.035Z,52.90
2017-05-17T21:48:38.130Z,53.10
2017-05-17T21:51:05.137Z,53.00
2017-05-17T21:53:32.847Z,52.90
2017-05-17T21:55:59.838Z,52.90
2017-05-17T21:58:26.828Z,53.10
2017-05-17T22:00:53.814Z,53.00
2017-05-17T22:03:20.800Z,53.10
2017-05-17T22:05:48.879Z,53.20
2017-05-17T22:08:15.866Z,53.30
2017-05-17T22:10:43.221Z,53.70
2017-05-17T22:13:10.231Z,53.20
2017-05-17T22:15:37.218Z,53.80
2017-05-17T22:18:04.207Z,53.90
2017-05-17T22:20:32.025Z,53.80
2017-05-17T22:22:59.012Z,53.40
2017-05-17T22:25:25.989Z,53.00
2017-05-17T22:27:53.000Z,52.20
2017-05-17T22:30:20.706Z,52.10
2017-05-17T22:32:47.673Z,51.80
2017-05-17T22:35:14.663Z,51.50
2017-05-17T22:37:42.373Z,51.60
2017-05-17T22:40:09.366Z,51.30
2017-05-17T22:42:36.341Z,51.10
2017-05-17T22:45:03.324Z,51.20
2017-05-17T22:47:31.034Z,51.10
2017-05-17T22:49:58.048Z,51.00
2017-05-17T22:52:25.025Z,51.20
2017-05-17T22:54:51.999Z,51.00
2017-05-17T22:57:19.209Z,51.20
2017-05-17T22:59:46.180Z,51.30
2017-05-17T23:02:13.170Z,51.80
2017-05-17T23:04:40.901Z,52.40
2017-05-17T23:07:07.885Z,52.50
2017-05-17T23:09:35.596Z,52.70
2017-05-17T23:12:02.594Z,53.30
2017-05-17T23:14:30.297Z,53.10
2017-05-17T23:16:57.302Z,53.20
2017-05-17T23:19:25.016Z,53.50
2017-05-17T23:21:51.983Z,53.80
2017-05-17T23:24:18.978Z,54.00
2017-05-17T23:26:45.944Z,54.10
2017-05-17T23:29:13.212Z,54.40
2017-05-17T23:31:40.253Z,54.70
2017-05-17T23:34:07.372Z,54.90
2017-05-17T23:36:34.334Z,55.00
2017-05-17T23:39:01.474Z,55.10
2017-05-17T23:41:28.441Z,55.20
2017-05-17T23:43:55.427Z,55.30
2017-05-17T23:46:23.148Z,55.40
2017-05-17T23:48:50.154Z,55.50
2017-05-17T23:51:17.864Z,55.50
2017-05-17T23:53:44.834Z,55.90
2017-05-17T23:56:11.870Z,55.90
2017-05-17T23:58:38.833Z,55.90
